createdAt,value
2022-07-25T00:01:07.648Z,12.65
2022-07-25T00:03:35.699Z,12.52
2022-07-25T00:06:13.425Z,13.25
2022-07-25T00:08:46.155Z,12.50
2022-07-25T00:11:14.242Z,12.55
2022-07-25T00:13:42.466Z,11.77
2022-07-25T00:16:10.969Z,12.77
2022-07-25T00:18:39.098Z,12.82
2022-07-25T00:21:08.668Z,12.95
2022-07-25T00:23:36.806Z,12.20
2022-07-25T00:26:05.161Z,11.60
2022-07-25T00:28:33.383Z,13.20
2022-07-25T00:31:01.484Z,12.35
2022-07-25T00:33:29.571Z,11.55
2022-07-25T00:35:58.753Z,12.10
2022-07-25T00:38:28.236Z,11.82
2022-07-25T00:40:56.422Z,11.95
2022-07-25T00:43:24.575Z,12.30
2022-07-25T00:45:52.614Z,12.50
2022-07-25T00:48:21.167Z,11.93
2022-07-25T00:50:49.431Z,12.23
2022-07-25T00:53:17.625Z,12.43
2022-07-25T00:55:47.845Z,13.40
2022-07-25T00:58:16.582Z,12.02
2022-07-25T01:00:45.050Z,12.85
2022-07-25T01:03:13.910Z,11.05
2022-07-25T01:05:42.348Z,8.05
2022-07-25T01:08:11.196Z,11.50
2022-07-25T01:10:40.269Z,11.15
2022-07-25T01:13:09.882Z,12.15
2022-07-25T01:18:07.999Z,11.88
2022-07-25T01:20:37.465Z,12.52
2022-07-25T01:25:33.930Z,12.60
2022-07-25T01:28:02.011Z,13.35
2022-07-25T01:30:30.110Z,13.57
2022-07-25T01:32:58.099Z,12.80
2022-07-25T01:35:26.136Z,12.68
2022-07-25T01:37:55.553Z,13.32
2022-07-25T01:40:23.745Z,12.38
2022-07-25T01:42:51.930Z,13.20
2022-07-25T01:45:20.025Z,12.80
2022-07-25T01:47:48.064Z,12.43
2022-07-25T01:50:16.117Z,12.77
2022-07-25T01:52:44.187Z,12.18
2022-07-25T01:55:13.944Z,11.43
2022-07-25T01:57:48.639Z,12.05
2022-07-25T02:00:19.262Z,12.52
2022-07-25T02:02:48.379Z,12.95
2022-07-25T02:05:16.801Z,12.68
2022-07-25T02:07:44.848Z,12.68
2022-07-25T02:10:14.306Z,11.93
2022-07-25T02:15:11.007Z,12.18
2022-07-25T02:17:39.294Z,12.57
2022-07-25T02:20:08.453Z,13.20
2022-07-25T02:22:36.480Z,12.35
2022-07-25T02:25:05.182Z,12.77
2022-07-25T02:27:34.653Z,12.32
2022-07-25T02:32:30.537Z,12.38
2022-07-25T02:34:59.136Z,11.60
2022-07-25T02:37:27.180Z,12.80
2022-07-25T02:39:55.225Z,12.52
2022-07-25T02:42:23.632Z,11.25
2022-07-25T02:44:53.082Z,12.02
2022-07-25T02:49:48.944Z,12.38
2022-07-25T02:52:16.956Z,11.55
2022-07-25T02:54:45.009Z,11.75
2022-07-25T02:57:13.028Z,11.93
2022-07-25T02:59:41.086Z,11.48
2022-07-25T03:02:10.504Z,12.45
2022-07-25T03:04:38.612Z,11.68
2022-07-25T03:07:06.778Z,10.88
2022-07-25T03:09:34.894Z,12.27
2022-07-25T03:12:03.095Z,11.82
2022-07-25T03:14:31.258Z,12.75
2022-07-25T03:16:59.525Z,12.05
2022-07-25T03:19:29.053Z,12.50
2022-07-25T03:21:57.223Z,11.82
2022-07-25T03:24:25.353Z,11.45
2022-07-25T03:26:53.360Z,11.32
2022-07-25T03:29:21.409Z,11.75
2022-07-25T03:31:49.521Z,10.98
2022-07-25T03:34:17.623Z,12.25
2022-07-25T03:36:46.998Z,11.65
2022-07-25T03:39:15.417Z,11.35
2022-07-25T03:41:43.450Z,11.50
2022-07-25T03:44:11.472Z,12.07
2022-07-25T03:46:39.533Z,11.57
2022-07-25T03:49:07.587Z,11.65
2022-07-25T03:51:35.629Z,11.95
2022-07-25T03:54:06.720Z,11.73
2022-07-25T03:56:43.953Z,11.85
2022-07-25T03:59:13.765Z,12.00
2022-07-25T04:04:10.833Z,11.75
2022-07-25T04:06:39.735Z,11.37
2022-07-25T04:09:10.838Z,12.07
2022-07-25T04:11:39.205Z,11.48
2022-07-25T04:14:08.028Z,11.82
2022-07-25T04:16:36.934Z,12.63
2022-07-25T04:19:05.400Z,12.52
2022-07-25T04:21:34.801Z,12.60
2022-07-25T04:24:03.338Z,12.32
2022-07-25T04:26:33.179Z,13.20
2022-07-25T04:31:31.914Z,12.90
2022-07-25T04:34:00.263Z,13.57
2022-07-25T04:36:28.300Z,12.70
2022-07-25T04:38:56.328Z,12.38
2022-07-25T04:41:24.358Z,12.50
2022-07-25T04:43:53.811Z,11.80
2022-07-25T04:48:50.933Z,11.48
2022-07-25T04:51:19.746Z,11.52
2022-07-25T04:53:48.102Z,11.40
2022-07-25T04:56:16.228Z,11.88
2022-07-25T04:58:44.260Z,11.63
2022-07-25T05:01:13.759Z,11.35
2022-07-25T05:06:18.654Z,10.88
2022-07-25T05:08:47.171Z,10.88
2022-07-25T05:11:15.217Z,10.38
2022-07-25T05:13:43.254Z,10.90
2022-07-25T05:16:11.405Z,9.30
2022-07-25T05:18:40.817Z,10.52
2022-07-25T05:21:11.744Z,10.27
2022-07-25T05:23:39.927Z,9.48
2022-07-25T05:26:08.061Z,9.65
2022-07-25T05:28:36.130Z,8.82
2022-07-25T05:31:04.574Z,9.82
2022-07-25T05:33:32.737Z,9.87
2022-07-25T05:36:03.366Z,9.77
2022-07-25T05:38:31.418Z,8.68
2022-07-25T05:40:59.427Z,9.52
2022-07-25T05:43:27.807Z,9.15
2022-07-25T05:46:01.820Z,9.60
2022-07-25T05:48:29.984Z,8.50
2022-07-25T05:50:59.364Z,8.30
2022-07-25T05:53:28.769Z,8.35
2022-07-25T05:58:29.477Z,8.38
2022-07-25T06:00:58.354Z,7.95
2022-07-25T06:03:26.680Z,8.50
2022-07-25T06:05:56.720Z,7.38
2022-07-25T06:08:25.055Z,7.68
2022-07-25T06:10:54.476Z,7.70
2022-07-25T06:13:22.919Z,7.65
2022-07-25T06:15:51.822Z,7.35
2022-07-25T06:18:20.131Z,6.47
2022-07-25T06:20:48.751Z,7.93
2022-07-25T06:23:16.855Z,7.45
2022-07-25T06:25:50.238Z,7.18
2022-07-25T06:28:20.157Z,6.78
2022-07-25T06:30:48.736Z,7.97
2022-07-25T06:33:16.819Z,6.80
2022-07-25T06:35:44.859Z,7.35
2022-07-25T06:38:12.921Z,6.75
2022-07-25T06:40:40.978Z,6.97
2022-07-25T06:43:08.986Z,7.15
2022-07-25T06:45:38.376Z,6.63
2022-07-25T06:48:07.109Z,6.95
2022-07-25T06:50:35.190Z,6.35
2022-07-25T06:53:03.262Z,6.45
2022-07-25T06:55:31.311Z,7.07
2022-07-25T06:57:59.340Z,6.13
2022-07-25T07:00:27.938Z,6.13
2022-07-25T07:03:01.139Z,6.50
2022-07-25T07:05:30.876Z,6.22
2022-07-25T07:07:59.913Z,6.05
2022-07-25T07:10:28.922Z,5.70
2022-07-25T07:13:08.063Z,5.80
2022-07-25T07:18:07.742Z,5.85
2022-07-25T07:20:36.336Z,5.93
2022-07-25T07:23:04.413Z,5.90
2022-07-25T07:25:34.291Z,5.13
2022-07-25T07:28:02.420Z,6.00
2022-07-25T07:30:58.725Z,5.10
2022-07-25T07:33:20.099Z,5.20
2022-07-25T07:35:48.297Z,4.55
2022-07-25T07:38:17.891Z,5.03
2022-07-25T07:40:45.956Z,4.32
2022-07-25T07:43:14.009Z,4.47
2022-07-25T07:45:43.598Z,4.05
2022-07-25T07:48:11.639Z,4.50
2022-07-25T07:50:41.426Z,4.65
2022-07-25T07:53:09.536Z,4.35
2022-07-25T07:55:45.931Z,4.68
2022-07-25T07:58:16.078Z,4.78
2022-07-25T08:00:45.605Z,4.60
2022-07-25T08:03:14.337Z,4.20
2022-07-25T08:05:45.513Z,4.10
2022-07-25T08:08:14.845Z,4.68
2022-07-25T08:10:46.040Z,4.70
2022-07-25T08:13:15.389Z,4.85
2022-07-25T08:15:43.991Z,4.80
2022-07-25T08:18:17.693Z,4.97
2022-07-25T08:20:47.710Z,5.47
2022-07-25T08:23:16.212Z,4.38
2022-07-25T08:25:45.036Z,4.32
2022-07-25T08:28:13.553Z,5.00
2022-07-25T08:30:42.785Z,4.93
2022-07-25T08:33:13.351Z,5.38
2022-07-25T08:35:46.356Z,4.32
2022-07-25T08:38:16.409Z,4.35
2022-07-25T08:40:44.562Z,4.50
2022-07-25T08:43:14.035Z,4.67
2022-07-25T08:45:46.909Z,4.00
2022-07-25T08:48:17.510Z,4.47
2022-07-25T08:50:46.894Z,4.68
2022-07-25T08:53:35.337Z,4.80
2022-07-25T08:58:44.064Z,4.93
2022-07-25T09:01:12.900Z,4.38
2022-07-25T09:03:41.481Z,4.70
2022-07-25T09:06:18.645Z,4.47
2022-07-25T09:09:00.293Z,4.97
2022-07-25T09:11:30.046Z,5.00
2022-07-25T09:14:05.252Z,4.50
2022-07-25T09:16:35.297Z,4.80
2022-07-25T09:19:15.347Z,4.38
2022-07-25T09:21:45.672Z,4.57
2022-07-25T09:24:18.131Z,4.90
2022-07-25T09:26:48.267Z,4.63
2022-07-25T09:29:24.749Z,5.07
2022-07-25T09:31:54.301Z,5.05
2022-07-25T09:34:34.831Z,4.82
2022-07-25T09:37:05.005Z,5.18
2022-07-25T09:39:45.416Z,5.03
2022-07-25T09:42:23.068Z,4.40
2022-07-25T09:45:02.894Z,5.07
2022-07-25T09:47:31.655Z,4.97
2022-07-25T09:52:27.589Z,4.67
2022-07-25T09:54:56.958Z,4.95
2022-07-25T09:57:25.906Z,4.88
2022-07-25T09:59:54.575Z,4.78
2022-07-25T10:02:40.741Z,4.35
2022-07-25T10:05:16.395Z,5.30
2022-07-25T10:07:47.849Z,5.55
2022-07-25T10:10:26.764Z,5.13
2022-07-25T10:13:10.187Z,5.32
2022-07-25T10:15:47.570Z,5.95
2022-07-25T10:18:17.551Z,5.45
2022-07-25T10:20:46.871Z,5.28
2022-07-25T10:23:24.106Z,5.40
2022-07-25T10:26:13.773Z,5.30
2022-07-25T10:28:44.999Z,5.13
2022-07-25T10:31:18.981Z,5.43
2022-07-25T10:33:51.526Z,5.20
2022-07-25T10:36:20.449Z,5.43
2022-07-25T10:38:48.604Z,5.40
2022-07-25T10:41:18.675Z,4.80
2022-07-25T10:43:48.852Z,4.90
2022-07-25T10:46:23.063Z,4.97
2022-07-25T10:49:00.155Z,5.32
2022-07-25T10:51:29.681Z,5.57
2022-07-25T10:53:57.841Z,5.07
2022-07-25T10:56:28.928Z,5.15
2022-07-25T10:58:59.011Z,5.32
2022-07-25T11:01:29.357Z,5.35
2022-07-25T11:03:59.145Z,5.07
2022-07-25T11:06:35.533Z,5.45
2022-07-25T11:09:04.929Z,5.47
2022-07-25T11:11:40.442Z,4.82
2022-07-25T11:14:16.574Z,6.07
2022-07-25T11:16:45.087Z,5.35
2022-07-25T11:19:22.018Z,5.03
2022-07-25T11:21:52.613Z,5.60
2022-07-25T11:24:21.015Z,5.55
2022-07-25T11:29:24.176Z,5.25
2022-07-25T11:31:57.288Z,5.60
2022-07-25T11:34:28.348Z,6.00
2022-07-25T11:36:58.395Z,5.22
2022-07-25T11:39:28.249Z,5.25
2022-07-25T11:42:06.101Z,5.20
2022-07-25T11:44:36.285Z,5.85
2022-07-25T11:47:05.420Z,5.65
2022-07-25T11:49:44.325Z,5.53
2022-07-25T11:52:23.407Z,5.72
2022-07-25T11:54:53.377Z,5.88
2022-07-25T11:57:23.735Z,5.60
2022-07-25T11:59:51.834Z,5.32
2022-07-25T12:02:27.583Z,5.35
2022-07-25T12:04:57.935Z,5.80
2022-07-25T12:07:37.793Z,5.53
2022-07-25T12:10:07.658Z,5.97
2022-07-25T12:12:49.726Z,5.63
2022-07-25T12:15:20.220Z,5.35
2022-07-25T12:17:49.019Z,5.63
2022-07-25T12:20:18.520Z,6.05
2022-07-25T12:22:47.069Z,5.60
2022-07-25T12:25:15.228Z,5.63
2022-07-25T12:27:43.322Z,5.65
2022-07-25T12:30:14.628Z,6.00
2022-07-25T12:32:43.144Z,6.45
2022-07-25T12:35:14.907Z,5.72
2022-07-25T12:37:43.830Z,6.07
2022-07-25T12:40:13.685Z,6.05
2022-07-25T12:42:41.894Z,5.90
2022-07-25T12:47:39.680Z,6.18
2022-07-25T12:50:08.395Z,5.70
2022-07-25T12:52:37.781Z,5.30
2022-07-25T12:55:07.072Z,6.07
2022-07-25T12:57:36.992Z,5.70
2022-07-25T13:00:07.489Z,5.85
2022-07-25T13:02:35.840Z,5.53
2022-07-25T13:05:06.521Z,6.63
2022-07-25T13:07:35.675Z,6.03
2022-07-25T13:10:04.381Z,5.68
2022-07-25T13:12:32.512Z,6.10
2022-07-25T13:15:01.526Z,6.15
2022-07-25T13:17:29.747Z,6.25
2022-07-25T13:22:27.380Z,6.18
2022-07-25T13:24:55.598Z,6.22
2022-07-25T13:29:54.531Z,6.55
2022-07-25T13:32:23.437Z,5.47
2022-07-25T13:34:51.677Z,5.90
2022-07-25T13:39:48.952Z,6.22
2022-07-25T13:42:17.002Z,6.00
2022-07-25T13:44:45.056Z,6.13
2022-07-25T13:47:13.162Z,6.00
2022-07-25T13:49:41.639Z,6.38
2022-07-25T13:52:09.792Z,5.72
2022-07-25T13:57:07.159Z,6.47
2022-07-25T13:59:35.236Z,5.68
2022-07-25T14:07:01.042Z,6.07
2022-07-25T14:09:29.321Z,6.20
2022-07-25T14:11:57.446Z,6.18
2022-07-25T14:16:55.571Z,6.63
2022-07-25T14:19:24.164Z,5.95
2022-07-25T14:21:52.307Z,6.30
2022-07-25T14:26:49.148Z,6.55
2022-07-25T14:29:17.184Z,6.55
2022-07-25T14:31:46.672Z,6.45
2022-07-25T14:34:16.412Z,6.07
2022-07-25T14:36:47.404Z,5.70
2022-07-25T14:39:15.975Z,5.90
2022-07-25T14:41:44.196Z,6.15
2022-07-25T14:44:13.458Z,6.05
2022-07-25T14:49:13.334Z,5.85
2022-07-25T14:51:41.458Z,6.32
2022-07-25T14:54:09.879Z,6.15
2022-07-25T14:56:38.228Z,6.20
2022-07-25T14:59:08.172Z,6.45
2022-07-25T15:01:36.867Z,6.07
2022-07-25T15:04:05.685Z,7.07
2022-07-25T15:06:35.099Z,6.53
2022-07-25T15:09:03.171Z,6.30
2022-07-25T15:11:31.395Z,6.53
2022-07-25T15:13:59.493Z,6.40
2022-07-25T15:16:27.591Z,6.30
2022-07-25T15:19:16.070Z,5.80
2022-07-25T15:21:46.626Z,6.25
2022-07-25T15:24:15.135Z,5.93
2022-07-25T15:26:43.607Z,6.10
2022-07-25T15:29:13.483Z,5.95
2022-07-25T15:31:41.633Z,5.03
2022-07-25T15:34:09.807Z,5.82
2022-07-25T15:36:37.979Z,5.78
2022-07-25T15:39:07.816Z,6.03
2022-07-25T15:41:36.634Z,6.20
2022-07-25T15:44:05.048Z,5.97
2022-07-25T15:49:01.417Z,6.03
